Time;durP1;ratioP1;P1;durP2;ratioP2;P2;SDS_P1;SDS_P2;PMS_P1;PMS_P2;Temp;Humidity;BMP_temperature;BMP_pressure;BME280_temperature;BME280_humidity;BME280_pressure;Samples;Min_cycle;Max_cycle;Signal;HPM_P1;HPM_P2
2022/03/03 00:01:46;;;;;;;105.10;51.33;;;;;;;;;;4840465;29;20065;-85
2022/03/03 00:04:13;;;;;;;108.25;54.47;;;;;;;;;;4835054;29;20042;-84
2022/03/03 00:06:39;;;;;;;112.85;53.33;;;;;;;;;;4834996;29;20049;-86
2022/03/03 00:09:05;;;;;;;118.07;56.00;;;;;;;;;;4804975;29;20874;-90
2022/03/03 00:11:32;;;;;;;111.55;56.83;;;;;;;;;;4839460;29;20049;-85
2022/03/03 00:13:59;;;;;;;112.82;54.78;;;;;;;;;;4822257;29;20053;-90
2022/03/03 00:16:26;;;;;;;103.18;51.13;;;;;;;;;;4832993;29;20525;-85
2022/03/03 00:18:52;;;;;;;110.55;52.85;;;;;;;;;;4838169;29;20617;-84
2022/03/03 00:21:18;;;;;;;112.88;52.53;;;;;;;;;;4833207;29;20042;-84
2022/03/03 00:23:44;;;;;;;118.63;55.70;;;;;;;;;;4841302;29;20521;-84
2022/03/03 00:26:10;;;;;;;112.85;55.28;;;;;;;;;;4819233;29;20058;-84
2022/03/03 00:28:36;;;;;;;114.38;55.28;;;;;;;;;;4842363;29;20064;-84
2022/03/03 00:31:02;;;;;;;108.53;53.20;;;;;;;;;;4823227;29;20057;-86
2022/03/03 00:33:29;;;;;;;118.72;55.28;;;;;;;;;;4822253;29;20573;-88
2022/03/03 00:35:55;;;;;;;114.32;55.15;;;;;;;;;;4828823;29;20060;-86
2022/03/03 00:38:21;;;;;;;110.22;53.80;;;;;;;;;;4839540;29;20120;-85
2022/03/03 00:40:47;;;;;;;108.88;53.50;;;;;;;;;;4839029;29;20166;-84
2022/03/03 00:43:13;;;;;;;108.93;54.45;;;;;;;;;;4822214;29;20042;-85
2022/03/03 00:45:39;;;;;;;110.07;52.35;;;;;;;;;;4839823;29;20042;-85
2022/03/03 00:48:06;;;;;;;105.72;53.22;;;;;;;;;;4836370;29;20054;-86
2022/03/03 00:50:33;;;;;;;96.68;50.15;;;;;;;;;;4837251;29;20861;-84
2022/03/03 00:52:59;;;;;;;100.47;51.80;;;;;;;;;;4842244;29;20038;-88
2022/03/03 00:55:25;;;;;;;94.10;50.03;;;;;;;;;;4822720;29;20055;-86
2022/03/03 00:57:51;;;;;;;98.70;49.25;;;;;;;;;;4839577;29;20054;-85
2022/03/03 01:00:20;;;;;;;94.25;48.17;;;;;;;;;;4822318;29;20073;-85
2022/03/03 01:02:47;;;;;;;88.72;46.80;;;;;;;;;;4820811;29;20128;-84
2022/03/03 01:05:13;;;;;;;88.63;48.78;;;;;;;;;;4840551;29;20144;-89
2022/03/03 01:07:39;;;;;;;89.68;47.72;;;;;;;;;;4838133;29;20138;-85
2022/03/03 01:10:06;;;;;;;89.82;49.10;;;;;;;;;;4836870;29;20078;-85
2022/03/03 01:12:32;;;;;;;85.20;47.53;;;;;;;;;;4821363;29;20133;-84
2022/03/03 01:14:58;;;;;;;87.43;48.70;;;;;;;;;;4820874;29;20042;-85
2022/03/03 01:17:24;;;;;;;90.93;48.33;;;;;;;;;;4835561;29;20664;-86
2022/03/03 01:19:50;;;;;;;93.70;48.63;;;;;;;;;;4830927;29;20058;-84
2022/03/03 01:22:16;;;;;;;88.85;49.75;;;;;;;;;;4834756;29;20046;-86
2022/03/03 01:24:43;;;;;;;93.30;48.47;;;;;;;;;;4840549;29;20050;-85
2022/03/03 01:27:09;;;;;;;87.38;48.88;;;;;;;;;;4820697;29;20082;-85
2022/03/03 01:29:36;;;;;;;91.60;48.55;;;;;;;;;;4820336;29;20076;-85
2022/03/03 01:32:02;;;;;;;84.65;47.13;;;;;;;;;;4819211;29;20057;-85
2022/03/03 01:34:29;;;;;;;89.35;47.25;;;;;;;;;;4836238;29;20073;-85
2022/03/03 01:36:55;;;;;;;85.03;47.38;;;;;;;;;;4819709;29;20092;-85
2022/03/03 01:39:21;;;;;;;87.25;46.38;;;;;;;;;;4818916;29;20048;-85
2022/03/03 01:41:47;;;;;;;82.90;48.30;;;;;;;;;;4815855;29;20066;-87
2022/03/03 01:44:13;;;;;;;90.40;47.38;;;;;;;;;;4821690;29;20046;-84
2022/03/03 01:46:49;;;;;;;90.97;49.22;;;;;;;;;;4837066;29;20962;-86
2022/03/03 01:49:15;;;;;;;90.82;48.60;;;;;;;;;;4828440;29;20042;-86
2022/03/03 01:51:41;;;;;;;94.85;49.80;;;;;;;;;;4813772;29;20030;-85
2022/03/03 01:54:07;;;;;;;95.43;51.15;;;;;;;;;;4836717;29;20058;-85
2022/03/03 01:56:34;;;;;;;94.78;50.53;;;;;;;;;;4823138;29;20133;-85
2022/03/03 01:59:00;;;;;;;97.03;52.17;;;;;;;;;;4837845;29;20046;-85
2022/03/03 02:01:27;;;;;;;94.22;51.72;;;;;;;;;;4819675;29;20595;-85
2022/03/03 02:03:53;;;;;;;94.85;51.33;;;;;;;;;;4836374;29;20046;-85
2022/03/03 02:06:19;;;;;;;93.07;50.78;;;;;;;;;;4821752;29;20174;-85
2022/03/03 02:08:45;;;;;;;94.82;49.78;;;;;;;;;;4837791;29;21723;-84
2022/03/03 02:11:13;;;;;;;97.30;50.47;;;;;;;;;;4838466;29;20436;-88
2022/03/03 02:13:39;;;;;;;89.53;49.20;;;;;;;;;;4819007;29;20042;-84
2022/03/03 02:16:08;;;;;;;85.18;47.05;;;;;;;;;;4819905;29;20538;-85
2022/03/03 02:18:43;;;;;;;90.30;48.45;;;;;;;;;;4826225;29;20517;-84
2022/03/03 02:21:10;;;;;;;79.43;45.53;;;;;;;;;;4841706;29;20733;-85
2022/03/03 02:23:36;;;;;;;80.97;43.63;;;;;;;;;;4837231;29;20530;-85
2022/03/03 02:26:03;;;;;;;81.38;45.38;;;;;;;;;;4837671;29;20046;-84
2022/03/03 02:28:29;;;;;;;81.55;46.03;;;;;;;;;;4819877;29;20045;-89
2022/03/03 02:30:55;;;;;;;81.65;44.92;;;;;;;;;;4818712;29;20057;-84
2022/03/03 02:33:21;;;;;;;80.43;43.58;;;;;;;;;;4820194;29;20053;-86
2022/03/03 02:35:47;;;;;;;86.55;44.30;;;;;;;;;;4834164;29;20132;-85
2022/03/03 02:38:13;;;;;;;79.80;43.90;;;;;;;;;;4839752;29;20038;-85
2022/03/03 02:40:39;;;;;;;79.43;43.90;;;;;;;;;;4834227;29;20150;-85
2022/03/03 02:43:05;;;;;;;80.20;45.72;;;;;;;;;;4838606;29;20592;-84
2022/03/03 02:45:31;;;;;;;81.50;44.38;;;;;;;;;;4821691;29;20054;-84
2022/03/03 02:47:57;;;;;;;84.88;45.38;;;;;;;;;;4824235;29;20046;-83
2022/03/03 02:50:26;;;;;;;84.82;46.25;;;;;;;;;;4826717;29;20100;-84
2022/03/03 02:52:52;;;;;;;86.45;45.50;;;;;;;;;;4830186;29;20518;-84
2022/03/03 02:55:20;;;;;;;93.88;48.05;;;;;;;;;;4824100;29;20037;-84
2022/03/03 02:57:56;;;;;;;95.75;49.08;;;;;;;;;;4836026;29;20506;-89
2022/03/03 03:00:38;;;;;;;98.72;50.65;;;;;;;;;;4826351;29;20125;-85
2022/03/03 03:03:05;;;;;;;96.40;49.97;;;;;;;;;;4830945;29;20525;-86
2022/03/03 03:05:31;;;;;;;99.03;50.25;;;;;;;;;;4840580;29;20042;-85
2022/03/03 03:07:57;;;;;;;97.43;51.55;;;;;;;;;;4839646;29;20380;-84
2022/03/03 03:10:23;;;;;;;98.60;52.63;;;;;;;;;;4833751;29;20472;-88
2022/03/03 03:12:49;;;;;;;98.22;52.70;;;;;;;;;;4819562;29;20049;-86
2022/03/03 03:15:16;;;;;;;98.85;52.03;;;;;;;;;;4833581;29;20057;-85
2022/03/03 03:17:42;;;;;;;111.25;53.75;;;;;;;;;;4841600;29;20117;-85
2022/03/03 03:20:08;;;;;;;104.53;52.60;;;;;;;;;;4821155;29;20041;-85
2022/03/03 03:22:35;;;;;;;104.82;51.25;;;;;;;;;;4822060;29;20045;-89
2022/03/03 03:25:01;;;;;;;103.30;52.42;;;;;;;;;;4818207;29;20145;-84
2022/03/03 03:27:28;;;;;;;104.18;51.30;;;;;;;;;;4835377;29;20042;-85
2022/03/03 03:29:54;;;;;;;106.93;53.42;;;;;;;;;;4817799;29;20117;-86
2022/03/03 03:32:20;;;;;;;96.50;50.05;;;;;;;;;;4833184;29;20045;-89
2022/03/03 03:34:46;;;;;;;97.22;51.30;;;;;;;;;;4837518;29;20053;-85
2022/03/03 03:37:12;;;;;;;94.65;48.97;;;;;;;;;;4819571;29;20102;-84
2022/03/03 03:39:38;;;;;;;99.32;49.45;;;;;;;;;;4837889;29;20050;-84
2022/03/03 03:42:04;;;;;;;90.25;49.33;;;;;;;;;;4820070;29;20402;-85
2022/03/03 03:44:30;;;;;;;100.45;49.42;;;;;;;;;;4818773;29;20125;-84
2022/03/03 03:46:56;;;;;;;96.50;50.22;;;;;;;;;;4818732;29;20467;-85
2022/03/03 03:49:23;;;;;;;90.95;47.13;;;;;;;;;;4824075;29;20096;-85
2022/03/03 03:51:50;;;;;;;90.45;47.30;;;;;;;;;;4834477;29;20563;-85
2022/03/03 03:54:16;;;;;;;90.55;47.22;;;;;;;;;;4817259;29;20038;-84
2022/03/03 03:56:42;;;;;;;84.82;45.83;;;;;;;;;;4819808;29;20050;-87
2022/03/03 03:59:08;;;;;;;85.82;46.13;;;;;;;;;;4829255;29;20057;-83
2022/03/03 04:01:34;;;;;;;89.47;48.00;;;;;;;;;;4820663;29;20089;-83
2022/03/03 04:04:00;;;;;;;88.70;47.15;;;;;;;;;;4840359;29;20070;-84
2022/03/03 04:06:26;;;;;;;90.95;47.03;;;;;;;;;;4825808;29;20093;-84
2022/03/03 04:08:52;;;;;;;83.88;45.63;;;;;;;;;;4845408;29;20835;-84
2022/03/03 04:11:18;;;;;;;89.22;45.70;;;;;;;;;;4823686;29;20061;-84
2022/03/03 04:13:44;;;;;;;88.82;47.75;;;;;;;;;;4822197;29;20053;-84
2022/03/03 04:16:11;;;;;;;86.13;47.50;;;;;;;;;;4827943;29;20045;-83
2022/03/03 04:18:37;;;;;;;91.20;47.30;;;;;;;;;;4838890;29;20054;-85
2022/03/03 04:21:05;;;;;;;89.55;46.67;;;;;;;;;;4844879;29;20167;-92
2022/03/03 04:23:31;;;;;;;88.28;45.80;;;;;;;;;;4836184;29;20050;-85
2022/03/03 04:25:57;;;;;;;82.78;45.35;;;;;;;;;;4841696;29;20068;-84
2022/03/03 04:28:23;;;;;;;84.32;44.60;;;;;;;;;;4836692;29;20466;-85
2022/03/03 04:30:49;;;;;;;84.25;45.72;;;;;;;;;;4839524;29;20058;-85
2022/03/03 04:33:15;;;;;;;88.93;46.95;;;;;;;;;;4835865;29;20092;-85
2022/03/03 04:35:42;;;;;;;92.07;47.58;;;;;;;;;;4822809;29;20065;-85
2022/03/03 04:38:08;;;;;;;96.88;50.25;;;;;;;;;;4838661;29;20190;-85
2022/03/03 04:40:34;;;;;;;92.95;48.97;;;;;;;;;;4842287;29;20046;-86
2022/03/03 04:43:00;;;;;;;89.40;47.35;;;;;;;;;;4825620;29;20037;-84
2022/03/03 04:45:26;;;;;;;90.07;47.65;;;;;;;;;;4818911;29;20072;-85
2022/03/03 04:47:52;;;;;;;90.18;48.78;;;;;;;;;;4839098;29;20085;-85
2022/03/03 04:50:18;;;;;;;87.03;48.03;;;;;;;;;;4823833;29;20045;-85
2022/03/03 04:52:44;;;;;;;87.78;48.42;;;;;;;;;;4823985;29;20038;-86
2022/03/03 04:55:10;;;;;;;86.05;48.90;;;;;;;;;;4824896;29;20048;-85
2022/03/03 04:57:37;;;;;;;84.32;46.47;;;;;;;;;;4833270;29;20438;-84
2022/03/03 05:00:05;;;;;;;89.22;47.60;;;;;;;;;;4837888;29;20056;-90
2022/03/03 05:02:31;;;;;;;94.07;48.85;;;;;;;;;;4838355;29;20408;-91
2022/03/03 05:04:57;;;;;;;91.68;48.95;;;;;;;;;;4826021;29;20692;-85
2022/03/03 05:07:23;;;;;;;97.95;49.60;;;;;;;;;;4837390;29;20049;-84
2022/03/03 05:09:53;;;;;;;86.90;49.22;;;;;;;;;;4838698;29;20056;-86
2022/03/03 05:12:19;;;;;;;87.82;45.97;;;;;;;;;;4838564;29;20062;-84
2022/03/03 05:14:45;;;;;;;90.82;47.85;;;;;;;;;;4834457;29;20050;-84
2022/03/03 05:17:11;;;;;;;90.35;48.25;;;;;;;;;;4831017;29;20499;-86
2022/03/03 05:19:37;;;;;;;90.97;48.90;;;;;;;;;;4840555;29;20037;-84
2022/03/03 05:22:03;;;;;;;89.43;47.58;;;;;;;;;;4844488;29;20041;-85
2022/03/03 05:24:29;;;;;;;88.47;46.10;;;;;;;;;;4839836;29;20054;-84
2022/03/03 05:26:55;;;;;;;88.13;46.80;;;;;;;;;;4836781;29;20074;-84
2022/03/03 05:29:21;;;;;;;93.00;47.72;;;;;;;;;;4833339;29;20044;-85
2022/03/03 05:31:47;;;;;;;90.38;46.90;;;;;;;;;;4834488;29;20149;-85
2022/03/03 05:34:14;;;;;;;88.40;46.00;;;;;;;;;;4834493;29;20102;-84
2022/03/03 05:36:41;;;;;;;90.50;47.95;;;;;;;;;;4834545;29;20082;-85
2022/03/03 05:39:08;;;;;;;94.35;47.15;;;;;;;;;;4817393;29;20087;-85
2022/03/03 05:41:34;;;;;;;91.53;49.65;;;;;;;;;;4816903;29;20069;-86
2022/03/03 05:44:01;;;;;;;98.82;49.78;;;;;;;;;;4834165;29;20050;-85
2022/03/03 05:46:27;;;;;;;95.13;48.38;;;;;;;;;;4835895;29;20058;-84
2022/03/03 05:48:53;;;;;;;93.72;50.33;;;;;;;;;;4834611;29;20038;-85
2022/03/03 05:51:19;;;;;;;98.97;49.38;;;;;;;;;;4821704;29;20042;-85
2022/03/03 05:53:45;;;;;;;98.75;50.75;;;;;;;;;;4837639;29;20040;-84
2022/03/03 05:56:13;;;;;;;92.05;48.95;;;;;;;;;;4826313;29;20080;-88
2022/03/03 05:58:47;;;;;;;101.40;50.67;;;;;;;;;;4820524;29;20414;-87
2022/03/03 06:01:14;;;;;;;97.55;50.35;;;;;;;;;;4807864;29;20152;-89
2022/03/03 06:03:40;;;;;;;106.10;51.33;;;;;;;;;;4794601;29;20054;-90
2022/03/03 06:06:06;;;;;;;101.75;51.20;;;;;;;;;;4808231;29;20054;-87
2022/03/03 06:08:41;;;;;;;92.78;49.42;;;;;;;;;;4824488;29;20048;-87
2022/03/03 06:11:11;;;;;;;99.72;49.80;;;;;;;;;;4831518;29;20089;-87
2022/03/03 06:13:39;;;;;;;93.80;49.28;;;;;;;;;;4801854;29;20102;-87
2022/03/03 06:16:21;;;;;;;93.88;48.05;;;;;;;;;;4835783;29;20557;-88
2022/03/03 06:18:53;;;;;;;102.93;50.20;;;;;;;;;;4810508;29;20102;-92
2022/03/03 06:21:19;;;;;;;104.82;51.95;;;;;;;;;;4795556;29;20087;-91
2022/03/03 06:23:45;;;;;;;99.95;51.65;;;;;;;;;;4801182;29;20046;-88
2022/03/03 06:26:13;;;;;;;103.15;53.70;;;;;;;;;;4819116;29;20105;-88
2022/03/03 06:28:39;;;;;;;101.00;52.38;;;;;;;;;;4809354;29;20046;-88
2022/03/03 06:31:06;;;;;;;109.05;51.70;;;;;;;;;;4814139;29;20491;-91
2022/03/03 06:33:33;;;;;;;105.55;51.78;;;;;;;;;;4797141;29;20566;-93
2022/03/03 06:35:59;;;;;;;105.13;52.85;;;;;;;;;;4806581;29;20042;-91
2022/03/03 06:38:26;;;;;;;101.90;51.90;;;;;;;;;;4805928;29;20133;-88
2022/03/03 06:40:54;;;;;;;107.38;54.30;;;;;;;;;;4831783;29;20364;-88
2022/03/03 06:43:20;;;;;;;104.88;55.88;;;;;;;;;;4822065;29;20045;-90
2022/03/03 06:45:46;;;;;;;104.22;51.50;;;;;;;;;;4802814;29;20610;-90
2022/03/03 06:48:13;;;;;;;110.55;53.78;;;;;;;;;;4790196;29;20484;-88
2022/03/03 06:50:40;;;;;;;112.25;58.25;;;;;;;;;;4837407;29;20490;-90
2022/03/03 06:53:07;;;;;;;114.65;57.45;;;;;;;;;;4802229;29;20069;-88
2022/03/03 06:55:33;;;;;;;121.88;58.63;;;;;;;;;;4806830;29;20118;-89
2022/03/03 06:57:59;;;;;;;112.95;56.35;;;;;;;;;;4787886;29;20046;-91
2022/03/03 07:00:32;;;;;;;112.38;56.65;;;;;;;;;;4836545;29;20034;-87
2022/03/03 07:02:59;;;;;;;119.53;57.33;;;;;;;;;;4817572;29;20450;-91
2022/03/03 07:05:27;;;;;;;120.43;54.97;;;;;;;;;;4826426;29;20125;-92
2022/03/03 07:07:54;;;;;;;115.22;54.45;;;;;;;;;;4839275;29;20094;-91
2022/03/03 07:10:25;;;;;;;109.55;53.75;;;;;;;;;;4824794;29;20065;-91
2022/03/03 07:12:57;;;;;;;119.22;56.58;;;;;;;;;;4827510;29;20336;-87
2022/03/03 07:15:24;;;;;;;116.10;56.72;;;;;;;;;;4831230;29;20050;-88
2022/03/03 07:18:12;;;;;;;102.13;53.15;;;;;;;;;;4837312;29;20113;-91
2022/03/03 07:20:47;;;;;;;108.57;54.20;;;;;;;;;;4849199;29;20038;-87
2022/03/03 07:23:35;;;;;;;105.82;53.45;;;;;;;;;;4835774;29;20045;-88
2022/03/03 07:26:02;;;;;;;113.28;53.80;;;;;;;;;;4844098;29;20054;-92
2022/03/03 07:28:29;;;;;;;104.45;52.53;;;;;;;;;;4827221;29;20046;-87
2022/03/03 07:30:56;;;;;;;100.30;51.25;;;;;;;;;;4825676;29;20136;-87
2022/03/03 07:33:41;;;;;;;104.72;51.70;;;;;;;;;;4843089;29;20038;-86
2022/03/03 07:39:18;;;;;;;96.78;51.20;;;;;;;;;;4818740;29;20050;-87
2022/03/03 07:41:53;;;;;;;95.05;48.47;;;;;;;;;;4821207;29;20053;-89
2022/03/03 07:44:19;;;;;;;97.30;52.28;;;;;;;;;;4815924;29;20056;-87
2022/03/03 07:46:49;;;;;;;98.95;51.42;;;;;;;;;;4835551;29;20042;-87
2022/03/03 07:49:21;;;;;;;100.90;50.50;;;;;;;;;;4818374;29;20070;-87
2022/03/03 07:51:58;;;;;;;97.93;51.05;;;;;;;;;;4815566;29;20852;-87
2022/03/03 07:54:24;;;;;;;92.63;51.50;;;;;;;;;;4828218;29;20136;-88
2022/03/03 07:57:07;;;;;;;91.57;49.35;;;;;;;;;;4834527;29;20042;-88
2022/03/03 07:59:47;;;;;;;85.93;47.65;;;;;;;;;;4821423;29;20052;-87
2022/03/03 08:02:20;;;;;;;85.20;46.63;;;;;;;;;;4815691;29;20566;-90
2022/03/03 08:04:47;;;;;;;79.22;45.90;;;;;;;;;;4819037;29;20459;-88
2022/03/03 08:07:14;;;;;;;81.22;45.65;;;;;;;;;;4819791;29;20053;-87
2022/03/03 08:09:41;;;;;;;80.35;44.92;;;;;;;;;;4798327;29;20038;-87
2022/03/03 08:12:07;;;;;;;77.40;44.03;;;;;;;;;;4835526;29;20085;-88
2022/03/03 08:14:33;;;;;;;75.50;42.25;;;;;;;;;;4814603;29;20078;-87
2022/03/03 08:17:00;;;;;;;70.35;42.97;;;;;;;;;;4787714;29;20046;-87
2022/03/03 08:19:26;;;;;;;77.78;44.33;;;;;;;;;;4792620;29;20061;-87
2022/03/03 08:21:52;;;;;;;76.78;44.15;;;;;;;;;;4835301;29;20105;-88
2022/03/03 08:24:18;;;;;;;72.85;43.03;;;;;;;;;;4816946;29;20897;-86
2022/03/03 08:26:45;;;;;;;76.28;44.47;;;;;;;;;;4819288;29;20049;-88
2022/03/03 08:29:12;;;;;;;71.28;42.40;;;;;;;;;;4834263;29;20078;-87
2022/03/03 08:31:49;;;;;;;71.07;40.88;;;;;;;;;;4815310;29;20069;-87
2022/03/03 08:34:19;;;;;;;74.68;42.60;;;;;;;;;;4819359;29;20498;-88
2022/03/03 08:36:54;;;;;;;74.60;41.22;;;;;;;;;;4815803;29;20041;-88
2022/03/03 08:39:29;;;;;;;68.55;41.78;;;;;;;;;;4832622;29;20058;-87
2022/03/03 08:41:56;;;;;;;69.43;41.42;;;;;;;;;;4809676;29;20050;-90
2022/03/03 08:44:24;;;;;;;75.75;43.25;;;;;;;;;;4817781;29;20172;-87
2022/03/03 08:46:50;;;;;;;69.10;40.67;;;;;;;;;;4810446;29;21351;-89
2022/03/03 08:49:17;;;;;;;71.57;42.58;;;;;;;;;;4832087;29;20538;-88
2022/03/03 08:51:43;;;;;;;65.30;40.13;;;;;;;;;;4838599;29;20161;-89
2022/03/03 08:54:18;;;;;;;70.00;41.60;;;;;;;;;;4845540;29;20489;-87
2022/03/03 08:56:44;;;;;;;76.03;43.03;;;;;;;;;;4830756;29;20105;-88
2022/03/03 08:59:10;;;;;;;67.72;40.45;;;;;;;;;;4838830;29;20037;-87
2022/03/03 09:01:36;;;;;;;73.20;43.33;;;;;;;;;;4819736;29;20038;-88
2022/03/03 09:04:03;;;;;;;69.40;41.53;;;;;;;;;;4796533;29;20034;-88
2022/03/03 09:06:30;;;;;;;70.65;41.85;;;;;;;;;;4841999;29;20505;-88
2022/03/03 09:09:17;;;;;;;71.53;41.40;;;;;;;;;;4801390;29;20578;-87
2022/03/03 09:11:43;;;;;;;71.35;42.67;;;;;;;;;;4791139;29;20054;-88
2022/03/03 09:14:21;;;;;;;70.38;41.75;;;;;;;;;;4812935;29;20058;-88
2022/03/03 09:17:00;;;;;;;68.55;41.95;;;;;;;;;;4793220;29;20054;-88
2022/03/03 09:19:50;;;;;;;77.45;43.05;;;;;;;;;;4799138;29;20058;-87
2022/03/03 09:22:16;;;;;;;67.22;42.75;;;;;;;;;;4813401;29;20114;-88
2022/03/03 09:24:43;;;;;;;74.75;44.47;;;;;;;;;;4800161;29;20082;-88
2022/03/03 09:27:09;;;;;;;71.50;43.30;;;;;;;;;;4813630;29;20411;-88
2022/03/03 09:29:35;;;;;;;68.80;42.75;;;;;;;;;;4816986;29;20046;-88
2022/03/03 09:32:02;;;;;;;73.82;43.20;;;;;;;;;;4796737;29;20183;-88
2022/03/03 09:34:28;;;;;;;68.15;41.60;;;;;;;;;;4786891;29;20121;-88
2022/03/03 09:36:55;;;;;;;69.75;41.95;;;;;;;;;;4813667;29;20062;-90
2022/03/03 09:39:21;;;;;;;70.30;41.72;;;;;;;;;;4804210;29;20089;-90
2022/03/03 09:42:13;;;;;;;68.72;42.30;;;;;;;;;;4811748;29;20061;-90
2022/03/03 09:44:42;;;;;;;67.22;40.47;;;;;;;;;;4833018;29;20046;-90
2022/03/03 09:47:20;;;;;;;65.07;40.20;;;;;;;;;;4803518;29;20054;-90
2022/03/03 09:49:53;;;;;;;69.55;40.70;;;;;;;;;;4833431;29;20046;-90
2022/03/03 09:52:30;;;;;;;64.68;39.47;;;;;;;;;;4813539;29;20057;-90
2022/03/03 09:54:57;;;;;;;65.05;40.90;;;;;;;;;;4808434;29;20278;-91
2022/03/03 09:57:33;;;;;;;66.65;40.67;;;;;;;;;;4824012;29;20125;-92
2022/03/03 10:00:02;;;;;;;64.22;39.47;;;;;;;;;;4808168;29;20049;-91
2022/03/03 10:02:28;;;;;;;63.85;39.55;;;;;;;;;;4812948;29;20114;-90
2022/03/03 10:04:58;;;;;;;64.80;39.10;;;;;;;;;;4818169;29;20097;-89
2022/03/03 10:10:15;;;;;;;60.38;39.38;;;;;;;;;;4852181;23;20137;-91
2022/03/03 10:12:57;;;;;;;63.63;39.38;;;;;;;;;;4813894;29;20073;-90
2022/03/03 10:22:46;;;;;;;67.65;37.63;;;6.60;99.90;;;;;;4819538;29;20072;-90
2022/03/03 10:25:55;;;;;;;55.67;37.70;;;;;;;;;;4795457;29;20055;-90
2022/03/03 10:28:23;;;;;;;56.47;37.58;;;;;;;;;;4802166;29;20050;-90
2022/03/03 10:31:09;;;;;;;59.90;38.92;;;;;;;;;;4792697;29;20061;-89
2022/03/03 10:33:36;;;;;;;51.70;35.92;;;;;;;;;;4805413;29;20050;-91
2022/03/03 10:36:26;;;;;;;57.97;38.35;;;;;;;;;;4794759;29;20046;-90
2022/03/03 10:38:56;;;;;;;63.53;40.08;;;;;;;;;;4801419;29;20155;-90
2022/03/03 10:41:54;;;;;;;58.50;36.60;;;;;;;;;;4817729;29;20473;-91
2022/03/03 10:44:40;;;;;;;52.53;33.97;;;;;;;;;;4804221;29;20415;-91
2022/03/03 10:50:19;;;;;;;55.63;35.70;;;;;;;;;;4820760;29;20518;-90
2022/03/03 10:52:46;;;;;;;53.83;36.40;;;;;;;;;;4807112;29;20058;-91
2022/03/03 10:55:24;;;;;;;50.35;35.58;;;;;;;;;;4820454;29;20047;-92
2022/03/03 10:57:57;;;;;;;47.03;32.00;;;;;;;;;;4805392;29;20050;-91
2022/03/03 11:00:24;;;;;;;46.17;33.13;;;;;;;;;;4813588;29;20055;-91
2022/03/03 11:02:51;;;;;;;50.50;33.33;;;;;;;;;;4802825;29;20042;-90
2022/03/03 11:08:15;;;;;;;57.88;36.95;;;;;;;;;;4802317;29;20133;-89
2022/03/03 11:10:41;;;;;;;52.95;35.75;;;;;;;;;;4807944;29;20139;-89
2022/03/03 11:13:32;;;;;;;53.00;37.35;;;;;;;;;;4797810;29;20412;-90
2022/03/03 11:16:28;;;;;;;51.63;35.60;;;;;;;;;;4791195;29;20047;-91
2022/03/03 11:18:54;;;;;;;;;;;;;;;;;;4803171;29;20436;-91
2022/03/03 11:21:20;;;;;;;50.00;34.92;;;;;;;;;;4803783;29;19925;-90
2022/03/03 11:23:52;;;;;;;49.10;34.28;;;;;;;;;;4804547;29;20054;-90
2022/03/03 11:26:21;;;;;;;51.33;34.22;;;;;;;;;;4809994;29;20497;-91
2022/03/03 11:29:07;;;;;;;43.55;31.80;;;;;;;;;;4802104;29;20153;-91
2022/03/03 11:31:37;;;;;;;45.53;31.85;;;;;;;;;;4807853;29;20083;-91
2022/03/03 11:34:40;;;;;;;45.67;32.72;;;;;;;;;;4804802;29;20069;-92
2022/03/03 11:39:57;;;;;;;43.67;33.00;;;;;;;;;;4805320;29;20090;-91
2022/03/03 11:42:40;;;;;;;44.85;29.90;;;;;;;;;;4804998;29;20062;-90
2022/03/03 11:45:09;;;;;;;42.15;30.40;;;;;;;;;;4816555;29;20081;-91
2022/03/03 11:50:53;;;;;;;38.70;28.13;;;;;;;;;;4813462;29;20059;-91
2022/03/03 11:53:28;;;;;;;38.55;26.08;;;;;;;;;;4785750;29;20051;-91
2022/03/03 11:56:03;;;;;;;38.33;26.10;;;;;;;;;;4793430;29;20059;-91
2022/03/03 11:58:39;;;;;;;42.75;27.55;;;;;;;;;;4794280;29;20073;-91
2022/03/03 12:01:14;;;;;;;36.20;24.33;;;;;;;;;;4869263;23;20072;-90
2022/03/03 12:04:25;;;;;;;37.55;26.40;;;;;;;;;;4838391;29;20053;-90
2022/03/03 12:07:19;;;;;;;37.85;25.77;;;;;;;;;;4853662;29;20558;-91
2022/03/03 12:10:10;;;;;;;38.63;27.13;;;;;;;;;;4870676;29;20052;-91
2022/03/03 12:25:51;;;;;;;37.80;24.90;;;;;;;;;;4879481;29;20705;-90
2022/03/03 12:28:47;;;;;;;38.03;27.35;;;;;;;;;;4860572;29;20060;-89
2022/03/03 12:34:41;;;;;;;38.20;27.77;;;;;;;;;;5027819;23;20509;-93
2022/03/03 12:37:09;;;;;;;37.17;25.95;;;;;;;;;;4839421;29;20071;-91
2022/03/03 12:39:51;;;;;;;40.90;27.52;;;;;;;;;;4855080;29;20569;-89
2022/03/03 12:42:28;;;;;;;38.70;26.83;;;;;;;;;;4823768;29;20052;-91
2022/03/03 12:44:59;;;;;;;35.45;26.15;;;;;;;;;;4860454;29;20088;-89
2022/03/03 12:47:35;;;;;;;35.80;25.30;;;;;;;;;;4870926;29;20057;-90
2022/03/03 12:50:35;;;;;;;35.60;25.75;;;;;;;;;;4841562;29;20109;-90
2022/03/03 12:53:16;;;;;;;38.90;25.02;;;;;;;;;;4841607;29;20108;-91
2022/03/03 12:55:49;;;;;;;37.00;25.65;;;;;;;;;;4853538;29;20057;-90
2022/03/03 12:58:17;;;;;;;32.40;23.67;;;;;;;;;;4844609;29;20048;-90
2022/03/03 13:00:48;;;;;;;33.42;23.52;;;;;;;;;;4853037;29;20045;-90
2022/03/03 13:03:20;;;;;;;32.45;23.15;;;;;;;;;;4870979;29;20061;-89
2022/03/03 13:06:05;;;;;;;33.22;23.27;;;;;;;;;;4838835;29;20056;-88
2022/03/03 13:08:35;;;;;;;32.83;22.60;;;;;;;;;;4843686;29;20452;-89
2022/03/03 13:11:18;;;;;;;27.15;20.88;;;;;;;;;;4865125;29;20578;-89
2022/03/03 13:14:03;;;;;;;28.95;21.40;;;;;;;;;;4855911;29;20109;-90
2022/03/03 13:20:03;;;;;;;26.17;20.13;;;;;;;;;;4849335;29;20065;-89
2022/03/03 13:22:29;;;;;;;27.00;20.52;;;;;;;;;;4809957;29;20519;-89
2022/03/03 13:25:19;;;;;;;25.83;19.10;;;;;;;;;;4793100;29;20057;-88
2022/03/03 13:27:49;;;;;;;27.60;19.65;;;;;;;;;;4798418;29;20069;-89
2022/03/03 13:32:45;;;;;;;23.85;17.42;;;;;;;;;;4860071;23;20057;-89
2022/03/03 13:35:11;;;;;;;23.23;17.75;;;;;;;;;;4843121;29;20052;-90
2022/03/03 13:37:37;;;;;;;26.52;17.42;;;;;;;;;;4837415;29;20041;-90
2022/03/03 13:40:26;;;;;;;25.20;17.42;;;;;;;;;;4820885;29;20030;-89
2022/03/03 13:43:07;;;;;;;23.60;16.92;;;;;;;;;;4857119;29;20268;-89
2022/03/03 13:45:36;;;;;;;23.58;16.52;;;;;;;;;;4836032;29;20041;-87
2022/03/03 13:48:06;;;;;;;24.38;16.50;;;;;;;;;;4842348;29;20038;-88
2022/03/03 13:50:40;;;;;;;23.50;15.98;;;;;;;;;;4838706;29;20057;-88
2022/03/03 13:53:28;;;;;;;21.48;15.55;;;;;;;;;;4836363;29;20050;-89
2022/03/03 13:56:08;;;;;;;25.08;14.50;;;;;;;;;;4818817;29;20049;-87
2022/03/03 13:58:35;;;;;;;22.70;15.88;;;;;;;;;;4836911;29;20041;-86
2022/03/03 14:01:03;;;;;;;21.55;14.63;;;;;;;;;;4825391;29;20053;-91
2022/03/03 14:04:09;;;;;;;25.80;14.57;;;;;;;;;;4839725;29;20091;-90
2022/03/03 14:06:40;;;;;;;;;;;;;;;;;;4851770;29;20049;-90
2022/03/03 14:09:06;;;;;;;20.92;14.32;;;;;;;;;;4868723;29;19932;-91
2022/03/03 14:11:33;;;;;;;20.05;14.05;;;;;;;;;;4827177;24;20072;-91
2022/03/03 14:17:08;;;;;;;21.63;13.88;;;;;;;;;;4864294;23;20065;-90
2022/03/03 14:23:33;;;;;;;22.63;13.77;;;;;;;;;;4871554;29;20048;-89
2022/03/03 14:26:03;;;;;;;19.58;13.15;;;;;;;;;;4825714;29;20052;-89
2022/03/03 14:28:31;;;;;;;16.90;12.00;;;;;;;;;;4840256;29;20085;-89
2022/03/03 14:30:58;;;;;;;19.02;12.63;;;;;;;;;;4827687;29;20099;-89
2022/03/03 14:33:35;;;;;;;19.52;12.98;;;;;;;;;;4826361;29;20077;-89
2022/03/03 14:36:01;;;;;;;18.52;12.20;;;;;;;;;;4844881;29;20081;-89
2022/03/03 14:38:34;;;;;;;20.40;13.00;;;;;;;;;;4840077;29;20129;-90
2022/03/03 14:41:01;;;;;;;18.92;13.18;;;;;;;;;;4840600;29;20053;-89
2022/03/03 14:47:12;;;;;;;18.40;12.90;;;;;;;;;;4991237;23;20057;-89
2022/03/03 14:49:38;;;;;;;19.95;12.70;;;;;;;;;;4847361;29;20061;-93
2022/03/03 14:52:11;;;;;;;19.05;13.02;;;;;;;;;;4841561;29;20053;-90
2022/03/03 14:54:55;;;;;;;16.73;11.23;;;;;;;;;;4826506;29;20053;-89
2022/03/03 14:57:27;;;;;;;;;;;;;;;;;;4825363;29;20056;-90
2022/03/03 15:00:00;;;;;;;17.23;10.93;;;;;;;;;;4825785;29;19946;-90
2022/03/03 15:02:45;;;;;;;15.57;11.20;;;;;;;;;;4823011;29;20082;-91
2022/03/03 15:05:18;;;;;;;15.85;10.30;;;;;;;;;;4813925;29;20094;-90
2022/03/03 15:07:45;;;;;;;15.97;11.30;;;;;;;;;;4814375;29;20158;-92
2022/03/03 15:10:12;;;;;;;16.30;11.15;;;;;;;;;;4810230;29;21024;-89
2022/03/03 15:12:38;;;;;;;15.65;11.18;;;;;;;;;;4798330;29;20138;-91
2022/03/03 15:15:07;;;;;;;16.63;11.50;;;;;;;;;;4805973;29;20439;-89
2022/03/03 15:17:33;;;;;;;16.48;11.10;;;;;;;;;;4788787;29;20201;-90
2022/03/03 15:19:59;;;;;;;15.52;11.68;;;;;;;;;;4812187;29;20488;-91
2022/03/03 15:22:25;;;;;;;17.38;10.77;;;;;;;;;;4793750;29;20058;-91
2022/03/03 15:24:52;;;;;;;16.05;11.32;;;;;;;;;;4806635;29;20037;-90
2022/03/03 15:27:18;;;;;;;14.13;10.63;;;;;;;;;;4781778;29;20081;-89
2022/03/03 15:29:47;;;;;;;17.83;12.40;;;;;;;;;;4807980;29;20045;-91
2022/03/03 15:32:13;;;;;;;21.40;11.13;;;;;;;;;;4808350;29;20053;-89